Time;durP1;ratioP1;P1;durP2;ratioP2;P2;SDS_P1;SDS_P2;PMS_P1;PMS_P2;Temp;Humidity;BMP_temperature;BMP_pressure;BME280_temperature;BME280_humidity;BME280_pressure;Samples;Min_cycle;Max_cycle;Signal;HPM_P1;HPM_P2
2022/11/23 00:01:38;;;;;;;;;;;;;;;2.12;98.62;95210.13;5094716;28;20405;-78
2022/11/23 00:04:05;;;;;;;;;;;;;;;2.09;98.60;95202.78;5093118;28;19957;-76
2022/11/23 00:06:31;;;;;;;;;;;;;;;2.07;99.24;95200.38;5094696;28;19952;-77
2022/11/23 00:08:57;;;;;;;;;;;;;;;2.08;100.00;95207.16;5094366;28;19965;-76
2022/11/23 00:11:24;;;;;;;;;;;;;;;2.11;100.00;95211.94;5094766;28;19956;-76
2022/11/23 00:13:51;;;;;;;;;;;;;;;2.13;100.00;95204.00;5127160;27;19951;-77
2022/11/23 00:16:18;;;;;;;;;;;;;;;2.13;100.00;95209.94;5094396;28;19967;-77
2022/11/23 00:18:44;;;;;;;;;;;;;;;2.13;100.00;95209.94;5083898;28;20301;-77
2022/11/23 00:21:17;;;;;;;;;;;;;;;2.12;100.00;95203.19;5094451;28;19949;-76
2022/11/23 00:23:43;;;;;;;;;;;;;;;2.09;100.00;95197.59;5093053;28;20412;-77
2022/11/23 00:26:09;;;;;;;;;;;;;;;2.07;100.00;95197.78;5092987;28;19950;-76
2022/11/23 00:28:39;;;;;;;;;;;;;;;2.06;100.00;95201.38;5080905;28;19946;-76
2022/11/23 00:31:06;;;;;;;;;;;;;;;2.05;100.00;95199.00;5092697;28;19970;-76
2022/11/23 00:33:31;;;;;;;;;;;;;;;2.02;100.00;95195.81;5092939;28;20331;-76
2022/11/23 00:36:09;;;;;;;;;;;;;;;2.05;100.00;95191.22;5094079;28;19978;-76
2022/11/23 00:38:35;;;;;;;;;;;;;;;2.06;100.00;95197.97;5068206;28;19949;-76
2022/11/23 00:41:02;;;;;;;;;;;;;;;2.07;100.00;95202.19;5086561;28;20048;-76
2022/11/23 00:43:28;;;;;;;;;;;;;;;2.10;100.00;95200.00;5092693;28;20350;-76
2022/11/23 00:46:24;;;;;;;;;;;;;;;2.12;100.00;95200.63;5092571;28;19947;-77
2022/11/23 00:48:50;;;;;;;;;;;;;;;2.13;100.00;95199.59;5084488;28;20295;-76
2022/11/23 00:51:18;;;;;;;;;;;;;;;2.15;100.00;95194.25;5093908;28;19950;-76
2022/11/23 00:53:43;;;;;;;;;;;;;;;2.13;100.00;95199.59;5092402;28;20300;-77
2022/11/23 00:56:10;;;;;;;;;;;;;;;2.15;100.00;95196.84;5091873;28;19966;-78
2022/11/23 00:58:38;;;;;;;;;;;;;;;2.15;100.00;95191.66;5093714;28;19955;-76
2022/11/23 01:01:06;;;;;;;;;;;;;;;2.15;100.00;95189.84;5092359;28;19954;-77
2022/11/23 01:03:33;;;;;;;;;;;;;;;2.15;100.00;95186.47;5092916;28;19974;-78
2022/11/23 01:06:03;;;;;;;;;;;;;;;2.13;100.00;95185.88;5075571;28;19960;-77
2022/11/23 01:08:29;;;;;;;;;;;;;;;2.13;100.00;95188.47;5092335;28;19970;-78
2022/11/23 01:11:02;;;;;;;;;;;;;;;2.15;100.00;95187.28;5059317;28;19973;-77
2022/11/23 01:13:28;;;;;;;;;;;;;;;2.16;100.00;95185.47;5093775;28;19954;-77
2022/11/23 01:15:54;;;;;;;;;;;;;;;2.16;100.00;95186.28;5094000;28;20063;-78
2022/11/23 01:18:20;;;;;;;;;;;;;;;2.17;100.00;95187.88;5093773;28;20298;-77
2022/11/23 01:20:46;;;;;;;;;;;;;;;2.18;100.00;95188.66;5092219;28;19955;-78
2022/11/23 01:23:12;;;;;;;;;;;;;;;2.19;100.00;95182.50;5093598;28;20041;-77
2022/11/23 01:25:38;;;;;;;;;;;;;;;2.18;100.00;95175.72;5092034;28;20399;-77
2022/11/23 01:28:04;;;;;;;;;;;;;;;2.15;100.00;95179.50;5093518;28;20014;-77
2022/11/23 01:30:30;;;;;;;;;;;;;;;2.15;100.00;95189.06;5092118;28;19970;-76
2022/11/23 01:32:56;;;;;;;;;;;;;;;2.14;100.00;95190.06;5092857;28;19959;-75
2022/11/23 01:35:21;;;;;;;;;;;;;;;2.12;100.00;95198.03;5093288;28;20003;-77
2022/11/23 01:37:47;;;;;;;;;;;;;;;2.09;100.00;95195.81;5092408;28;20013;-76
2022/11/23 01:40:13;;;;;;;;;;;;;;;2.07;100.00;95202.97;5093319;28;19997;-76
2022/11/23 01:42:48;;;;;;;;;;;;;;;2.07;100.00;95202.19;5093605;28;19959;-76
2022/11/23 01:45:35;;;;;;;;;;;;;;;2.07;100.00;95202.97;5093298;28;20059;-76
2022/11/23 01:48:03;;;;;;;;;;;;;;;2.06;100.00;95203.97;5093328;28;19961;-76
2022/11/23 01:50:29;;;;;;;;;;;;;;;2.06;100.00;95205.75;5091967;28;19969;-77
2022/11/23 01:52:55;;;;;;;;;;;;;;;2.05;100.00;95209.34;5093383;28;19959;-76
2022/11/23 01:55:21;;;;;;;;;;;;;;;2.00;100.00;95205.53;5093220;28;19952;-76
2022/11/23 01:57:47;;;;;;;;;;;;;;;1.98;100.00;95206.72;5093274;28;19952;-77
2022/11/23 02:00:13;;;;;;;;;;;;;;;1.97;100.00;95207.72;5093286;28;19961;-77
2022/11/23 02:02:41;;;;;;;;;;;;;;;1.95;100.00;95215.69;5074904;28;19951;-77
2022/11/23 02:05:07;;;;;;;;;;;;;;;1.96;100.00;95213.88;5093205;28;20551;-76
2022/11/23 02:07:33;;;;;;;;;;;;;;;1.94;100.00;95219.25;5094825;28;19951;-77
2022/11/23 02:10:00;;;;;;;;;;;;;;;1.94;100.00;95221.03;5096639;28;19978;-77
2022/11/23 02:12:25;;;;;;;;;;;;;;;1.93;100.00;95220.25;5078873;28;19966;-77
2022/11/23 02:14:51;;;;;;;;;;;;;;;1.92;100.00;95216.06;5095490;28;19983;-77
2022/11/23 02:17:18;;;;;;;;;;;;;;;1.90;100.00;95220.63;5096793;28;19965;-77
2022/11/23 02:19:51;;;;;;;;;;;;;;;1.87;100.00;95215.84;5096606;28;19951;-77
2022/11/23 02:22:36;;;;;;;;;;;;;;;1.86;100.00;95216.81;5096690;28;19969;-78
2022/11/23 02:25:07;;;;;;;;;;;;;;;1.83;100.00;95218.00;5095581;28;19974;-77
2022/11/23 02:27:33;;;;;;;;;;;;;;;1.80;100.00;95220.97;5096571;28;20328;-77
2022/11/23 02:30:01;;;;;;;;;;;;;;;1.79;100.00;95228.94;5078226;28;19980;-77
2022/11/23 02:32:27;;;;;;;;;;;;;;;1.77;100.00;95229.13;5078889;28;20393;-78
2022/11/23 02:34:53;;;;;;;;;;;;;;;1.76;100.00;95218.97;5096494;28;19984;-77
2022/11/23 02:37:19;;;;;;;;;;;;;;;1.74;100.00;95224.34;5095137;28;19963;-75
2022/11/23 02:39:48;;;;;;;;;;;;;;;1.71;100.00;95224.72;5094969;28;19956;-75
2022/11/23 02:42:14;;;;;;;;;;;;;;;1.69;99.99;95231.88;5096068;28;19951;-76
2022/11/23 02:44:39;;;;;;;;;;;;;;;1.67;99.76;95222.72;5094925;28;19950;-76
2022/11/23 02:47:06;;;;;;;;;;;;;;;1.63;99.60;95215.34;5094971;28;19949;-75
2022/11/23 02:49:32;;;;;;;;;;;;;;;1.60;99.89;95217.53;5095922;28;19988;-76
2022/11/23 02:51:58;;;;;;;;;;;;;;;1.58;100.00;95220.28;5078000;28;20332;-76
2022/11/23 02:54:24;;;;;;;;;;;;;;;1.58;100.00;95219.50;5094793;28;19949;-75
2022/11/23 02:56:50;;;;;;;;;;;;;;;1.56;100.00;95217.09;5094754;28;19953;-76
2022/11/23 02:59:16;;;;;;;;;;;;;;;1.53;100.00;95216.69;5095293;28;19962;-76
2022/11/23 03:01:41;;;;;;;;;;;;;;;1.51;99.85;95213.50;5094553;28;19993;-75
2022/11/23 03:04:08;;;;;;;;;;;;;;;1.50;99.84;95217.88;5094696;28;20000;-76
2022/11/23 03:06:34;;;;;;;;;;;;;;;1.48;99.78;95219.06;5095695;28;19947;-75
2022/11/23 03:09:00;;;;;;;;;;;;;;;1.46;99.73;95221.03;5094744;28;19957;-77
2022/11/23 03:11:26;;;;;;;;;;;;;;;1.43;99.70;95219.63;5094709;28;19963;-76
2022/11/23 03:13:51;;;;;;;;;;;;;;;1.43;100.00;95227.38;5094239;28;19948;-77
2022/11/23 03:16:17;;;;;;;;;;;;;;;1.39;100.00;95229.53;5086199;28;19965;-77
2022/11/23 03:18:43;;;;;;;;;;;;;;;1.37;100.00;95223.75;5093136;28;19955;-75
2022/11/23 03:21:09;;;;;;;;;;;;;;;1.36;100.00;95229.13;5095448;28;19970;-76
2022/11/23 03:23:35;;;;;;;;;;;;;;;1.36;100.00;95232.47;5077464;28;19958;-75
2022/11/23 03:26:02;;;;;;;;;;;;;;;1.34;100.00;95229.28;5095274;28;19950;-75
2022/11/23 03:28:29;;;;;;;;;;;;;;;1.37;100.00;95230.72;5095478;28;19957;-77
2022/11/23 03:30:54;;;;;;;;;;;;;;;1.35;100.00;95230.91;5077036;28;19963;-76
2022/11/23 03:33:20;;;;;;;;;;;;;;;1.36;100.00;95227.31;5095088;28;19980;-76
2022/11/23 03:35:46;;;;;;;;;;;;;;;1.35;100.00;95228.31;5093210;28;20355;-77
2022/11/23 03:38:12;;;;;;;;;;;;;;;1.34;100.00;95228.50;5093887;28;19954;-76
2022/11/23 03:40:38;;;;;;;;;;;;;;;1.34;100.00;95228.50;5093646;28;19949;-76
2022/11/23 03:43:04;;;;;;;;;;;;;;;1.33;100.00;95224.34;5094786;28;19952;-76
2022/11/23 03:45:30;;;;;;;;;;;;;;;1.33;100.00;95219.19;5094224;28;19957;-76
2022/11/23 03:47:56;;;;;;;;;;;;;;;1.33;100.00;95221.75;5094863;28;19950;-76
2022/11/23 03:50:22;;;;;;;;;;;;;;;1.32;100.00;95220.94;5094708;28;20509;-76
2022/11/23 03:52:48;;;;;;;;;;;;;;;1.32;100.00;95215.78;5093807;28;19998;-76
2022/11/23 03:55:14;;;;;;;;;;;;;;;1.34;100.00;95211.22;5094604;28;19958;-76
2022/11/23 03:57:40;;;;;;;;;;;;;;;1.34;100.00;95206.03;5093317;28;19950;-76
2022/11/23 04:00:07;;;;;;;;;;;;;;;1.34;100.00;95210.41;5094687;28;20420;-76
2022/11/23 04:02:33;;;;;;;;;;;;;;;1.35;100.00;95212.03;5093932;28;19948;-76
2022/11/23 04:05:00;;;;;;;;;;;;;;;1.34;100.00;95208.63;5093350;28;19962;-76
2022/11/23 04:07:26;;;;;;;;;;;;;;;1.36;100.00;95209.25;5093378;28;20319;-76
2022/11/23 04:09:52;;;;;;;;;;;;;;;1.39;100.00;95216.63;5093057;28;19976;-76
2022/11/23 04:12:18;;;;;;;;;;;;;;;1.41;100.00;95213.84;5094902;28;19955;-76
2022/11/23 04:14:44;;;;;;;;;;;;;;;1.43;100.00;95217.06;5076350;28;19965;-76
2022/11/23 04:17:10;;;;;;;;;;;;;;;1.44;100.00;95217.84;5094442;28;20005;-77
2022/11/23 04:19:36;;;;;;;;;;;;;;;1.43;100.00;95214.47;5094612;28;20015;-76
2022/11/23 04:22:01;;;;;;;;;;;;;;;1.42;100.00;95213.66;5092713;28;19958;-76
2022/11/23 04:24:27;;;;;;;;;;;;;;;1.40;100.00;95207.88;5094402;28;19981;-77
2022/11/23 04:26:53;;;;;;;;;;;;;;;1.40;100.00;95210.44;5094249;28;20442;-76
2022/11/23 04:29:19;;;;;;;;;;;;;;;1.41;100.00;95203.53;5093685;28;19996;-77
2022/11/23 04:31:45;;;;;;;;;;;;;;;1.39;100.00;95202.91;5093859;28;20022;-77
2022/11/23 04:34:11;;;;;;;;;;;;;;;1.38;100.00;95196.13;5077553;28;20015;-76
2022/11/23 04:36:37;;;;;;;;;;;;;;;1.38;100.00;95198.72;5085952;28;19989;-78
2022/11/23 04:39:03;;;;;;;;;;;;;;;1.37;100.00;95199.72;5093979;28;20356;-77
2022/11/23 04:41:29;;;;;;;;;;;;;;;1.37;100.00;95195.34;5092545;28;19954;-76
2022/11/23 04:43:55;;;;;;;;;;;;;;;1.38;100.00;95198.72;5094235;28;20410;-76
2022/11/23 04:46:20;;;;;;;;;;;;;;;1.39;100.00;95195.16;5092927;28;19948;-76
2022/11/23 04:48:46;;;;;;;;;;;;;;;1.39;100.00;95185.63;5092753;28;20322;-76
2022/11/23 04:51:12;;;;;;;;;;;;;;;1.39;100.00;95188.22;5093696;28;19967;-76
2022/11/23 04:53:39;;;;;;;;;;;;;;;1.39;100.00;95190.78;5093684;28;20034;-76
2022/11/23 04:56:05;;;;;;;;;;;;;;;1.41;100.00;95185.44;5080182;28;20392;-76
2022/11/23 04:58:31;;;;;;;;;;;;;;;1.42;100.00;95192.97;5093927;28;19951;-75
2022/11/23 05:00:57;;;;;;;;;;;;;;;1.43;100.00;95193.81;5092599;28;19980;-76
2022/11/23 05:03:23;;;;;;;;;;;;;;;1.43;100.00;95191.22;5093525;28;20403;-77
2022/11/23 05:05:49;;;;;;;;;;;;;;;1.44;100.00;95189.44;5093764;28;19952;-76
2022/11/23 05:08:15;;;;;;;;;;;;;;;1.42;100.00;95192.97;5093529;28;19955;-77
2022/11/23 05:10:41;;;;;;;;;;;;;;;1.44;100.00;95192.00;5093746;28;19972;-77
2022/11/23 05:13:07;;;;;;;;;;;;;;;1.42;100.00;95195.56;5092405;28;19957;-76
2022/11/23 05:15:33;;;;;;;;;;;;;;;1.43;100.00;95191.22;5092458;28;19978;-75
2022/11/23 05:17:59;;;;;;;;;;;;;;;1.42;100.00;95185.22;5093648;28;19954;-76
2022/11/23 05:20:25;;;;;;;;;;;;;;;1.41;100.00;95193.97;5093662;28;20394;-76
2022/11/23 05:22:51;;;;;;;;;;;;;;;1.43;100.00;95188.63;5093536;28;20026;-76
2022/11/23 05:25:17;;;;;;;;;;;;;;;1.42;100.00;95189.59;5075608;28;19963;-77
2022/11/23 05:27:43;;;;;;;;;;;;;;;1.42;100.00;95189.59;5093731;28;20282;-77
2022/11/23 05:30:09;;;;;;;;;;;;;;;1.40;100.00;95192.38;5092430;28;20015;-76
2022/11/23 05:32:35;;;;;;;;;;;;;;;1.39;100.00;95185.63;5093532;28;19953;-77
2022/11/23 05:35:01;;;;;;;;;;;;;;;1.37;100.00;95181.66;5092997;28;19978;-77
2022/11/23 05:37:26;;;;;;;;;;;;;;;1.34;100.00;95182.00;5093653;28;19957;-77
2022/11/23 05:39:52;;;;;;;;;;;;;;;1.32;100.00;95184.00;5075656;28;19978;-77
2022/11/23 05:42:18;;;;;;;;;;;;;;;1.31;100.00;95190.94;5094887;28;20366;-77
2022/11/23 05:44:44;;;;;;;;;;;;;;;1.30;100.00;95191.94;5096260;28;19956;-77
2022/11/23 05:47:10;;;;;;;;;;;;;;;1.29;100.00;95192.13;5096229;28;20390;-77
2022/11/23 05:49:36;;;;;;;;;;;;;;;1.27;100.00;95191.53;5097326;28;19985;-77
2022/11/23 05:52:02;;;;;;;;;;;;;;;1.25;100.00;95196.88;5078795;28;19969;-76
2022/11/23 05:54:28;;;;;;;;;;;;;;;1.24;100.00;95190.13;5097028;28;19952;-77
2022/11/23 05:56:54;;;;;;;;;;;;;;;1.21;100.00;95182.75;5096036;28;20316;-77
2022/11/23 05:59:19;;;;;;;;;;;;;;;1.19;100.00;95193.25;5097175;28;19957;-77
2022/11/23 06:01:45;;;;;;;;;;;;;;;1.18;100.00;95193.47;5097408;28;19950;-77
2022/11/23 06:04:12;;;;;;;;;;;;;;;1.17;100.00;95187.47;5095704;28;19948;-77
2022/11/23 06:06:38;;;;;;;;;;;;;;;1.16;100.00;95187.69;5096941;28;19957;-77
2022/11/23 06:09:03;;;;;;;;;;;;;;;1.15;100.00;95180.91;5095559;28;20035;-77
2022/11/23 06:11:30;;;;;;;;;;;;;;;1.15;100.00;95188.66;5096758;28;19960;-77
2022/11/23 06:13:57;;;;;;;;;;;;;;;1.14;100.00;95193.03;5096807;28;19974;-77
2022/11/23 06:16:22;;;;;;;;;;;;;;;1.14;100.00;95189.66;5095515;28;19957;-76
2022/11/23 06:18:48;;;;;;;;;;;;;;;1.13;100.00;95188.06;5096679;28;19950;-76
2022/11/23 06:21:14;;;;;;;;;;;;;;;1.13;100.00;95191.44;5095982;28;19957;-76
2022/11/23 06:23:40;;;;;;;;;;;;;;;1.12;100.00;95195.00;5096496;28;19993;-76
2022/11/23 06:26:06;;;;;;;;;;;;;;;1.13;100.00;95194.00;5095524;28;19959;-76
2022/11/23 06:28:34;;;;;;;;;;;;;;;1.12;100.00;95192.44;5096550;28;19960;-76
2022/11/23 06:31:01;;;;;;;;;;;;;;;1.13;100.00;95188.84;5095207;28;19960;-76
2022/11/23 06:33:27;;;;;;;;;;;;;;;1.15;100.00;95196.41;5095211;28;19986;-77
2022/11/23 06:35:54;;;;;;;;;;;;;;;1.15;100.00;95196.41;5096445;28;19952;-76
2022/11/23 06:38:20;;;;;;;;;;;;;;;1.15;100.00;95193.84;5095115;28;19957;-76
2022/11/23 06:40:46;;;;;;;;;;;;;;;1.13;100.00;95194.00;5094969;28;19951;-75
2022/11/23 06:43:11;;;;;;;;;;;;;;;1.11;100.00;95188.25;5096048;28;20004;-75
2022/11/23 06:45:37;;;;;;;;;;;;;;;1.09;100.00;95192.81;5095203;28;19954;-75
2022/11/23 06:48:03;;;;;;;;;;;;;;;1.09;100.00;95195.41;5096157;28;20073;-75
2022/11/23 06:50:29;;;;;;;;;;;;;;;1.07;100.00;95189.63;5096161;28;20322;-75
2022/11/23 06:52:55;;;;;;;;;;;;;;;1.07;100.00;95199.13;5094817;28;19999;-75
2022/11/23 06:55:22;;;;;;;;;;;;;;;1.06;100.00;95200.13;5095355;28;19959;-77
2022/11/23 06:57:48;;;;;;;;;;;;;;;1.05;100.00;95201.94;5094949;28;19961;-76
2022/11/23 07:00:14;;;;;;;;;;;;;;;1.05;99.96;95201.94;5094707;28;20038;-76
2022/11/23 07:02:40;;;;;;;;;;;;;;;1.06;100.00;95215.63;5094596;28;19958;-77
2022/11/23 07:05:06;;;;;;;;;;;;;;;1.04;100.00;95204.69;5095786;28;19961;-77
2022/11/23 07:07:31;;;;;;;;;;;;;;;1.06;100.00;95213.84;5094253;28;20038;-77
2022/11/23 07:09:57;;;;;;;;;;;;;;;1.07;100.00;95206.88;5094525;28;19958;-77
2022/11/23 07:12:23;;;;;;;;;;;;;;;1.07;99.90;95199.97;5094709;28;20017;-77
2022/11/23 07:14:49;;;;;;;;;;;;;;;1.06;99.98;95203.50;5095570;28;19951;-77
2022/11/23 07:17:15;;;;;;;;;;;;;;;1.06;99.99;95200.94;5094256;28;19951;-77
2022/11/23 07:19:41;;;;;;;;;;;;;;;1.08;100.00;95205.91;5095733;28;20402;-77
2022/11/23 07:22:07;;;;;;;;;;;;;;;1.10;100.00;95212.47;5095293;28;20004;-76
2022/11/23 07:24:33;;;;;;;;;;;;;;;1.13;100.00;95214.66;5094401;28;20454;-76
2022/11/23 07:26:58;;;;;;;;;;;;;;;1.24;100.00;95217.72;5094469;28;20108;-77
2022/11/23 07:29:24;;;;;;;;;;;;;;;1.37;100.00;95222.97;5095273;28;19992;-76
2022/11/23 07:31:50;;;;;;;;;;;;;;;1.56;100.00;95218.91;5094173;28;20015;-77
2022/11/23 07:34:16;;;;;;;;;;;;;;;1.76;99.82;95213.81;5076876;28;19999;-76
2022/11/23 07:36:42;;;;;;;;;;;;;;;1.98;99.82;95214.50;5093992;28;20446;-77
2022/11/23 07:39:08;;;;;;;;;;;;;;;2.18;98.83;95217.13;5095190;28;19964;-76
2022/11/23 07:41:34;;;;;;;;;;;;;;;2.36;98.20;95216.56;5093845;28;19957;-76
2022/11/23 07:44:00;;;;;;;;;;;;;;;2.56;97.62;95214.00;5095100;28;19986;-76
2022/11/23 07:46:26;;;;;;;;;;;;;;;2.74;96.95;95216.00;5094997;28;19943;-77
2022/11/23 07:48:53;;;;;;;;;;;;;;;2.91;96.69;95219.00;5076865;28;20409;-78
2022/11/23 07:51:19;;;;;;;;;;;;;;;3.09;96.05;95223.53;5093811;28;19977;-78
2022/11/23 07:53:45;;;;;;;;;;;;;;;3.28;96.06;95229.72;5093402;28;20464;-77
2022/11/23 07:56:11;;;;;;;;;;;;;;;3.50;95.17;95219.91;5076465;28;19955;-77
2022/11/23 07:58:37;;;;;;;;;;;;;;;3.71;94.70;95221.44;5090956;28;19955;-78
2022/11/23 08:01:03;;;;;;;;;;;;;;;3.88;93.67;95229.53;5076711;28;20042;-78
2022/11/23 08:03:29;;;;;;;;;;;;;;;4.04;93.31;95226.50;5093457;28;20436;-79
2022/11/23 08:05:54;;;;;;;;;;;;;;;4.17;92.35;95226.41;5078525;28;19996;-79
2022/11/23 08:08:20;;;;;;;;;;;;;;;4.25;90.26;95223.59;5076387;28;19998;-79
2022/11/23 08:10:46;;;;;;;;;;;;;;;4.28;91.32;95230.16;5093271;28;20334;-79
2022/11/23 08:13:12;;;;;;;;;;;;;;;4.37;91.01;95228.13;5059749;28;20010;-79
2022/11/23 08:15:38;;;;;;;;;;;;;;;4.50;91.21;95214.28;5059749;28;19953;-79
2022/11/23 08:18:04;;;;;;;;;;;;;;;4.67;90.58;95210.16;5093296;28;20325;-79
2022/11/23 08:20:30;;;;;;;;;;;;;;;4.84;90.26;95218.22;5076292;28;19954;-79
2022/11/23 08:22:56;;;;;;;;;;;;;;;5.00;89.44;95220.28;5078059;28;19954;-79
2022/11/23 08:25:23;;;;;;;;;;;;;;;5.17;90.03;95219.75;5076267;28;19960;-80
2022/11/23 08:27:55;;;;;;;;;;;;;;;5.31;89.02;95220.41;5076100;28;19949;-79
2022/11/23 08:30:21;;;;;;;;;;;;;;;5.37;88.99;95222.16;5093998;28;20304;-79
2022/11/23 08:32:47;;;;;;;;;;;;;;;5.43;87.89;95213.50;5092885;28;19991;-79
2022/11/23 08:35:13;;;;;;;;;;;;;;;5.51;88.65;95207.22;5075941;28;20363;-79
2022/11/23 08:37:39;;;;;;;;;;;;;;;5.58;87.59;95202.75;5093129;28;19957;-80
2022/11/23 08:40:05;;;;;;;;;;;;;;;5.61;87.94;95207.53;5075950;28;20408;-79
2022/11/23 08:42:31;;;;;;;;;;;;;;;5.64;87.91;95202.66;5075845;28;20336;-80
2022/11/23 08:44:58;;;;;;;;;;;;;;;5.73;88.16;95210.16;5094168;28;19957;-80
2022/11/23 08:47:25;;;;;;;;;;;;;;;5.79;87.21;95193.69;5092663;28;19959;-80
2022/11/23 08:49:51;;;;;;;;;;;;;;;5.83;86.56;95200.06;5094221;28;19946;-80
2022/11/23 08:52:17;;;;;;;;;;;;;;;5.88;88.07;95208.81;5092518;28;20116;-80
2022/11/23 08:54:43;;;;;;;;;;;;;;;5.94;85.99;95191.50;5092788;28;19949;-79
2022/11/23 08:57:09;;;;;;;;;;;;;;;6.01;87.78;95212.28;5092474;28;20002;-80
2022/11/23 08:59:35;;;;;;;;;;;;;;;5.98;86.69;95203.09;5093539;28;20011;-79
2022/11/23 09:02:00;;;;;;;;;;;;;;;5.83;84.29;95194.84;5093955;28;19958;-80
2022/11/23 09:04:28;;;;;;;;;;;;;;;5.61;86.26;95205.72;5092388;28;19951;-80
2022/11/23 09:06:54;;;;;;;;;;;;;;;5.50;86.57;95209.00;5075819;28;19954;-80
2022/11/23 09:09:20;;;;;;;;;;;;;;;5.32;85.73;95207.19;5092343;28;20471;-80
2022/11/23 09:11:45;;;;;;;;;;;;;;;5.36;87.80;95217.97;5092405;28;20047;-80
2022/11/23 09:14:11;;;;;;;;;;;;;;;5.42;88.17;95217.91;5092108;28;19952;-80
2022/11/23 09:16:37;;;;;;;;;;;;;;;5.53;88.18;95226.00;5077467;28;19948;-79
2022/11/23 09:19:04;;;;;;;;;;;;;;;5.58;86.79;95215.75;5096364;28;20000;-80
2022/11/23 09:21:32;;;;;;;;;;;;;;;5.56;86.82;95217.75;5096516;28;19952;-80
2022/11/23 09:23:58;;;;;;;;;;;;;;;5.51;84.62;95202.03;5063260;28;20303;-80
2022/11/23 09:26:25;;;;;;;;;;;;;;;5.47;87.37;95225.06;5096434;28;19962;-80
2022/11/23 09:28:51;;;;;;;;;;;;;;;5.43;84.34;95206.47;5097482;28;19949;-79
2022/11/23 09:31:17;;;;;;;;;;;;;;;5.45;88.18;95227.84;5063111;28;19963;-79
2022/11/23 09:33:43;;;;;;;;;;;;;;;5.55;86.78;95221.38;5094097;28;19980;-79
2022/11/23 09:36:09;;;;;;;;;;;;;;;5.51;86.87;95226.22;5096251;28;19992;-79
2022/11/23 09:38:35;;;;;;;;;;;;;;;5.55;87.23;95231.78;5096135;28;19951;-79
2022/11/23 09:41:01;;;;;;;;;;;;;;;5.62;86.78;95225.47;5096147;28;19950;-80
2022/11/23 09:44:03;;;;;;;;;;;;;;;5.77;87.82;95237.34;5079179;28;20390;-79
2022/11/23 09:46:36;;;;;;;;;;;;;;;5.88;87.86;95237.41;5055234;28;20515;-79
2022/11/23 09:49:02;;;;;;;;;;;;;;;5.96;84.98;95215.53;5064108;28;19952;-80
2022/11/23 09:51:28;;;;;;;;;;;;;;;5.99;86.82;95219.53;5078773;28;19965;-79
2022/11/23 09:53:54;;;;;;;;;;;;;;;6.12;88.06;95223.75;5096157;28;20381;-79
2022/11/23 09:56:22;;;;;;;;;;;;;;;6.28;84.76;95192.72;5095966;28;19948;-80
2022/11/23 09:58:52;;;;;;;;;;;;;;;6.45;87.17;95212.91;5113351;27;19953;-80
2022/11/23 10:01:18;;;;;;;;;;;;;;;6.44;83.30;95188.66;5079004;28;19948;-80
2022/11/23 10:03:44;;;;;;;;;;;;;;;6.43;84.13;95191.50;5078796;28;19954;-80
2022/11/23 10:06:18;;;;;;;;;;;;;;;6.37;84.59;95187.19;5079154;28;19959;-79
2022/11/23 10:08:50;;;;;;;;;;;;;;;6.46;84.10;95184.03;5096718;28;19947;-79
2022/11/23 10:11:16;;;;;;;;;;;;;;;6.59;85.55;95198.66;5096794;28;19967;-80
2022/11/23 10:13:46;;;;;;;;;;;;;;;6.76;85.81;95198.03;5078483;28;19985;-81
2022/11/23 10:16:26;;;;;;;;;;;;;;;7.09;88.58;95192.28;5096575;28;19951;-79
2022/11/23 10:19:10;;;;;;;;;;;;;;;7.13;82.86;95158.72;5095492;28;20419;-78
2022/11/23 10:21:42;;;;;;;;;;;;;;;7.16;83.95;95168.69;5095593;28;19949;-79
2022/11/23 10:24:14;;;;;;;;;;;;;;;7.24;82.71;95160.53;5078597;28;19954;-79
2022/11/23 10:26:42;;;;;;;;;;;;;;;7.29;93.29;95216.19;5078187;28;20406;-77
2022/11/23 10:29:14;;;;;;;;;;;;;;;7.72;85.95;95159.44;5095315;28;19959;-79
2022/11/23 10:31:44;;;;;;;;;;;;;;;7.81;80.38;95112.88;5078236;28;20013;-79
2022/11/23 10:34:12;;;;;;;;;;;;;;;7.70;79.58;95111.91;5094746;28;19972;-79
2022/11/23 10:36:38;;;;;;;;;;;;;;;7.51;81.90;95142.56;5095270;28;19952;-79
2022/11/23 10:39:13;;;;;;;;;;;;;;;7.50;82.37;95154.84;5095029;28;19946;-79
2022/11/23 10:41:39;;;;;;;;;;;;;;;7.53;83.11;95143.13;5095517;28;19950;-78
2022/11/23 10:44:08;;;;;;;;;;;;;;;7.61;82.18;95144.59;5077936;28;19954;-78
2022/11/23 10:46:34;;;;;;;;;;;;;;;7.64;82.91;95158.00;5078439;28;20027;-78
2022/11/23 10:49:17;;;;;;;;;;;;;;;7.64;80.31;95141.53;5094859;28;20423;-78
2022/11/23 10:51:54;;;;;;;;;;;;;;;7.58;82.20;95156.31;5094671;28;19969;-78
2022/11/23 10:54:22;;;;;;;;;;;;;;;7.60;82.77;95153.44;5094926;28;19955;-78
2022/11/23 10:56:49;;;;;;;;;;;;;;;7.54;82.25;95139.53;5094699;28;19950;-78
2022/11/23 10:59:25;;;;;;;;;;;;;;;7.65;82.29;95149.13;5096412;28;19953;-78
2022/11/23 11:02:10;;;;;;;;;;;;;;;7.70;80.60;95120.50;5083365;28;19958;-78
2022/11/23 11:04:35;;;;;;;;;;;;;;;7.84;80.66;95120.25;5086145;28;20446;-78
2022/11/23 11:07:09;;;;;;;;;;;;;;;7.92;80.85;95118.06;5077866;28;19997;-78
2022/11/23 11:09:35;;;;;;;;;;;;;;;7.97;81.55;95127.81;5095667;28;19950;-78
2022/11/23 11:12:01;;;;;;;;;;;;;;;8.04;78.93;95106.78;5077659;28;20012;-78
2022/11/23 11:14:27;;;;;;;;;;;;;;;8.14;78.78;95109.56;5094551;28;20006;-78
2022/11/23 11:16:54;;;;;;;;;;;;;;;8.17;77.01;95082.19;5094472;28;20006;-78
2022/11/23 11:19:27;;;;;;;;;;;;;;;8.20;79.05;95100.00;5095442;28;19954;-77
2022/11/23 11:21:53;;;;;;;;;;;;;;;8.25;80.62;95115.75;5094126;28;19959;-78
2022/11/23 11:24:22;;;;;;;;;;;;;;;8.29;79.95;95111.63;5094598;28;19952;-77
2022/11/23 11:26:49;;;;;;;;;;;;;;;8.38;80.05;95106.81;5094319;28;19948;-78
2022/11/23 11:29:37;;;;;;;;;;;;;;;8.31;79.66;95106.97;5077399;28;19955;-78
2022/11/23 11:32:08;;;;;;;;;;;;;;;8.08;77.05;95073.94;5077086;28;20337;-78
2022/11/23 11:34:43;;;;;;;;;;;;;;;8.03;79.73;95105.19;5093895;28;19992;-78
2022/11/23 11:37:18;;;;;;;;;;;;;;;8.08;80.55;95111.31;5095467;28;19953;-78
2022/11/23 11:39:46;;;;;;;;;;;;;;;8.09;78.55;95083.38;5082574;28;19951;-78
2022/11/23 11:42:16;;;;;;;;;;;;;;;8.00;80.17;95092.59;5077253;28;19949;-78
2022/11/23 11:44:44;;;;;;;;;;;;;;;7.88;79.96;95088.22;5093692;28;19954;-78
2022/11/23 11:47:30;;;;;;;;;;;;;;;7.80;79.76;95093.03;5093764;28;20428;-78
2022/11/23 11:49:58;;;;;;;;;;;;;;;7.77;80.65;95089.09;5094663;28;20401;-78
2022/11/23 11:52:26;;;;;;;;;;;;;;;7.77;80.59;95085.66;5093643;28;19971;-78
2022/11/23 11:54:52;;;;;;;;;;;;;;;7.77;80.68;95081.25;5094700;28;19943;-78
2022/11/23 11:57:25;;;;;;;;;;;;;;;7.69;79.41;95058.16;5093548;28;20004;-78
2022/11/23 11:59:56;;;;;;;;;;;;;;;7.65;79.09;95062.25;5077047;28;19955;-78
2022/11/23 12:02:34;;;;;;;;;;;;;;;7.59;77.68;95043.09;5094887;28;19959;-78
2022/11/23 12:05:12;;;;;;;;;;;;;;;7.59;79.41;95058.75;5094412;28;20414;-78
2022/11/23 12:07:44;;;;;;;;;;;;;;;7.67;80.44;95060.97;5094828;28;19954;-78
2022/11/23 12:10:14;;;;;;;;;;;;;;;7.78;80.69;95064.56;5094429;28;20298;-78
2022/11/23 12:12:40;;;;;;;;;;;;;;;7.89;80.94;95066.31;5094550;28;19970;-78
2022/11/23 12:15:15;;;;;;;;;;;;;;;7.96;79.17;95047.09;5093164;28;19972;-78
2022/11/23 12:17:44;;;;;;;;;;;;;;;7.92;79.74;95058.03;5094691;28;19948;-78
2022/11/23 12:20:28;;;;;;;;;;;;;;;7.90;78.86;95052.25;5094998;28;19981;-78
2022/11/23 12:23:13;;;;;;;;;;;;;;;7.96;79.76;95060.97;5113850;27;19955;-78
2022/11/23 12:25:59;;;;;;;;;;;;;;;7.99;78.66;95041.44;5092805;28;19952;-78
2022/11/23 12:28:25;;;;;;;;;;;;;;;8.01;78.61;95042.78;5072882;28;19953;-78
2022/11/23 12:31:06;;;;;;;;;;;;;;;8.04;79.39;95060.59;5094265;28;19953;-77
2022/11/23 12:33:41;;;;;;;;;;;;;;;8.08;76.64;95038.22;5092837;28;19989;-78
2022/11/23 12:36:25;;;;;;;;;;;;;;;8.07;76.64;95031.38;5092725;28;19950;-77
2022/11/23 12:38:59;;;;;;;;;;;;;;;8.08;77.41;95043.44;5093256;28;19952;-77
2022/11/23 12:41:27;;;;;;;;;;;;;;;8.14;75.85;95031.22;5094536;28;19952;-78
2022/11/23 12:44:05;;;;;;;;;;;;;;;8.18;78.64;95045.41;5092891;28;20416;-78
2022/11/23 12:46:40;;;;;;;;;;;;;;;8.24;77.84;95039.22;5093836;28;19970;-78
2022/11/23 12:49:29;;;;;;;;;;;;;;;8.30;78.29;95040.88;5092884;28;20532;-78
2022/11/23 12:51:58;;;;;;;;;;;;;;;8.34;76.45;95020.31;5093000;28;19957;-78
2022/11/23 12:54:34;;;;;;;;;;;;;;;8.31;74.89;94992.84;5092919;28;19974;-77